Lake Butler, Florida
Current Conditions -  °F | °C
As of 2:55 AM on Thursday 29 Jan 2015 (Local Time) from KLCQ Reporting Station
Clear Clear  
Wind Chill: 32°   Ceiling: Unl
Heat Index: 32°   Visibility: 10mi
Dew Point: 32°   Wind: 0mph
Humidity: 100%   Direction: NA
Pressure: 30.3"   Gusts: NA
Location:  30.02°N, 82.34°W
Report Text: KLCQ 290755Z AUTO 00000KT 10SM CLR 00/00 A3030 RMK AO2
Loading
Personal Weather Stations






























Interactive Weather Map New forecast layout! Learn more

10-Day Weather Forecast

Advertisements
Track Severe Weather on mobile